sensor_id;sensor_type;location;lat;lon;timestamp;P1;durP1;ratioP1;P2;durP2;ratioP2
26036;SDS011;13810;48.376;10.944;2023-04-03T00:00:15;8.43;;;4.13;;
26036;SDS011;13810;48.376;10.944;2023-04-03T00:00:46;5.18;;;3.28;;
26036;SDS011;13810;48.376;10.944;2023-04-03T00:01:17;5.97;;;3.97;;
26036;SDS011;13810;48.376;10.944;2023-04-03T00:01:48;6.55;;;4.53;;
26036;SDS011;13810;48.376;10.944;2023-04-03T00:02:18;5.07;;;3.90;;
26036;SDS011;13810;48.376;10.944;2023-04-03T00:02:49;5.95;;;4.15;;
26036;SDS011;13810;48.376;10.944;2023-04-03T00:03:20;5.38;;;4.13;;
26036;SDS011;13810;48.376;10.944;2023-04-03T00:03:50;6.15;;;4.30;;
26036;SDS011;13810;48.376;10.944;2023-04-03T00:04:21;8.43;;;4.22;;
26036;SDS011;13810;48.376;10.944;2023-04-03T00:04:52;8.02;;;4.53;;
26036;SDS011;13810;48.376;10.944;2023-04-03T00:05:22;5.97;;;4.10;;
26036;SDS011;13810;48.376;10.944;2023-04-03T00:05:53;6.30;;;4.20;;
26036;SDS011;13810;48.376;10.944;2023-04-03T00:06:25;7.13;;;4.00;;
26036;SDS011;13810;48.376;10.944;2023-04-03T00:06:56;5.03;;;4.00;;
26036;SDS011;13810;48.376;10.944;2023-04-03T00:07:26;5.57;;;4.20;;
26036;SDS011;13810;48.376;10.944;2023-04-03T00:07:57;7.30;;;4.60;;
26036;SDS011;13810;48.376;10.944;2023-04-03T00:08:28;4.80;;;3.80;;
26036;SDS011;13810;48.376;10.944;2023-04-03T00:09:00;5.97;;;4.50;;
26036;SDS011;13810;48.376;10.944;2023-04-03T00:09:31;5.78;;;4.28;;
26036;SDS011;13810;48.376;10.944;2023-04-03T00:10:02;4.68;;;3.83;;
26036;SDS011;13810;48.376;10.944;2023-04-03T00:10:33;5.50;;;4.45;;
26036;SDS011;13810;48.376;10.944;2023-04-03T00:11:04;4.95;;;4.35;;
26036;SDS011;13810;48.376;10.944;2023-04-03T00:11:36;6.10;;;4.07;;
26036;SDS011;13810;48.376;10.944;2023-04-03T00:12:06;5.55;;;4.57;;
26036;SDS011;13810;48.376;10.944;2023-04-03T00:12:37;7.63;;;4.32;;
26036;SDS011;13810;48.376;10.944;2023-04-03T00:13:08;5.43;;;3.85;;
26036;SDS011;13810;48.376;10.944;2023-04-03T00:13:39;4.75;;;3.53;;
26036;SDS011;13810;48.376;10.944;2023-04-03T00:14:10;8.68;;;4.95;;
26036;SDS011;13810;48.376;10.944;2023-04-03T00:14:40;5.78;;;4.18;;
26036;SDS011;13810;48.376;10.944;2023-04-03T00:15:11;5.05;;;4.00;;
26036;SDS011;13810;48.376;10.944;2023-04-03T00:15:42;6.25;;;3.60;;
26036;SDS011;13810;48.376;10.944;2023-04-03T00:16:13;8.00;;;4.32;;
26036;SDS011;13810;48.376;10.944;2023-04-03T00:16:44;7.63;;;4.05;;
26036;SDS011;13810;48.376;10.944;2023-04-03T00:17:14;5.05;;;3.88;;
26036;SDS011;13810;48.376;10.944;2023-04-03T00:17:45;5.53;;;3.97;;
26036;SDS011;13810;48.376;10.944;2023-04-03T00:18:16;7.38;;;4.15;;
26036;SDS011;13810;48.376;10.944;2023-04-03T00:18:46;6.43;;;3.50;;
26036;SDS011;13810;48.376;10.944;2023-04-03T00:19:17;8.35;;;4.88;;
26036;SDS011;13810;48.376;10.944;2023-04-03T00:19:48;6.97;;;4.18;;
26036;SDS011;13810;48.376;10.944;2023-04-03T00:20:18;5.80;;;4.15;;
26036;SDS011;13810;48.376;10.944;2023-04-03T00:20:49;5.45;;;3.92;;
26036;SDS011;13810;48.376;10.944;2023-04-03T00:21:20;4.78;;;4.20;;
26036;SDS011;13810;48.376;10.944;2023-04-03T00:21:50;4.57;;;3.63;;
26036;SDS011;13810;48.376;10.944;2023-04-03T00:22:23;8.45;;;4.03;;
26036;SDS011;13810;48.376;10.944;2023-04-03T00:22:54;5.78;;;4.10;;
26036;SDS011;13810;48.376;10.944;2023-04-03T00:23:25;5.40;;;4.32;;
26036;SDS011;13810;48.376;10.944;2023-04-03T00:23:55;5.63;;;4.25;;
26036;SDS011;13810;48.376;10.944;2023-04-03T00:24:26;5.43;;;3.80;;
26036;SDS011;13810;48.376;10.944;2023-04-03T00:24:57;6.65;;;4.45;;
26036;SDS011;13810;48.376;10.944;2023-04-03T00:25:27;6.72;;;4.13;;
26036;SDS011;13810;48.376;10.944;2023-04-03T00:25:58;5.47;;;4.25;;
26036;SDS011;13810;48.376;10.944;2023-04-03T00:26:29;5.00;;;3.97;;
26036;SDS011;13810;48.376;10.944;2023-04-03T00:27:00;4.93;;;3.92;;
26036;SDS011;13810;48.376;10.944;2023-04-03T00:27:30;3.75;;;3.33;;
26036;SDS011;13810;48.376;10.944;2023-04-03T00:28:01;5.65;;;4.05;;
26036;SDS011;13810;48.376;10.944;2023-04-03T00:28:32;6.25;;;4.32;;
26036;SDS011;13810;48.376;10.944;2023-04-03T00:29:03;5.40;;;3.58;;
26036;SDS011;13810;48.376;10.944;2023-04-03T00:29:33;5.22;;;4.15;;
26036;SDS011;13810;48.376;10.944;2023-04-03T00:30:05;5.68;;;3.92;;
26036;SDS011;13810;48.376;10.944;2023-04-03T00:30:38;4.55;;;3.80;;
26036;SDS011;13810;48.376;10.944;2023-04-03T00:31:08;5.10;;;3.72;;
26036;SDS011;13810;48.376;10.944;2023-04-03T00:31:39;5.47;;;3.90;;
26036;SDS011;13810;48.376;10.944;2023-04-03T00:32:10;4.72;;;3.60;;
26036;SDS011;13810;48.376;10.944;2023-04-03T00:32:41;5.20;;;3.60;;
26036;SDS011;13810;48.376;10.944;2023-04-03T00:33:12;4.35;;;3.38;;
26036;SDS011;13810;48.376;10.944;2023-04-03T00:33:43;6.97;;;3.58;;
26036;SDS011;13810;48.376;10.944;2023-04-03T00:34:14;4.80;;;3.10;;
26036;SDS011;13810;48.376;10.944;2023-04-03T00:34:45;7.90;;;3.75;;
26036;SDS011;13810;48.376;10.944;2023-04-03T00:35:16;4.43;;;2.97;;
26036;SDS011;13810;48.376;10.944;2023-04-03T00:35:48;4.32;;;3.30;;
26036;SDS011;13810;48.376;10.944;2023-04-03T00:36:18;4.57;;;3.60;;
26036;SDS011;13810;48.376;10.944;2023-04-03T00:36:49;4.50;;;3.50;;
26036;SDS011;13810;48.376;10.944;2023-04-03T00:37:21;7.45;;;3.13;;
26036;SDS011;13810;48.376;10.944;2023-04-03T00:37:52;5.05;;;3.88;;
26036;SDS011;13810;48.376;10.944;2023-04-03T00:38:24;6.22;;;3.17;;
26036;SDS011;13810;48.376;10.944;2023-04-03T00:38:54;5.80;;;3.28;;
26036;SDS011;13810;48.376;10.944;2023-04-03T00:39:25;4.72;;;3.30;;
26036;SDS011;13810;48.376;10.944;2023-04-03T00:39:56;5.30;;;3.95;;
26036;SDS011;13810;48.376;10.944;2023-04-03T00:40:27;4.45;;;3.05;;
26036;SDS011;13810;48.376;10.944;2023-04-03T00:40:58;3.97;;;3.22;;
26036;SDS011;13810;48.376;10.944;2023-04-03T00:41:28;4.15;;;2.90;;
26036;SDS011;13810;48.376;10.944;2023-04-03T00:41:59;6.05;;;3.45;;
26036;SDS011;13810;48.376;10.944;2023-04-03T00:42:30;4.05;;;3.28;;
26036;SDS011;13810;48.376;10.944;2023-04-03T00:43:01;4.60;;;3.60;;
26036;SDS011;13810;48.376;10.944;2023-04-03T00:43:31;4.00;;;3.20;;
26036;SDS011;13810;48.376;10.944;2023-04-03T00:44:18;4.00;;;2.70;;
26036;SDS011;13810;48.376;10.944;2023-04-03T00:45:21;4.38;;;3.17;;
26036;SDS011;13810;48.376;10.944;2023-04-03T00:46:01;3.22;;;2.60;;
26036;SDS011;13810;48.376;10.944;2023-04-03T00:46:32;3.78;;;2.85;;
26036;SDS011;13810;48.376;10.944;2023-04-03T00:47:03;3.13;;;2.83;;
26036;SDS011;13810;48.376;10.944;2023-04-03T00:47:37;8.02;;;3.08;;
26036;SDS011;13810;48.376;10.944;2023-04-03T00:48:11;4.28;;;3.17;;
26036;SDS011;13810;48.376;10.944;2023-04-03T00:48:47;5.13;;;3.10;;
26036;SDS011;13810;48.376;10.944;2023-04-03T00:49:18;3.78;;;2.80;;
26036;SDS011;13810;48.376;10.944;2023-04-03T00:49:50;3.90;;;2.97;;
26036;SDS011;13810;48.376;10.944;2023-04-03T00:50:22;5.78;;;3.08;;
26036;SDS011;13810;48.376;10.944;2023-04-03T00:50:53;4.18;;;3.10;;
26036;SDS011;13810;48.376;10.944;2023-04-03T00:51:25;3.75;;;3.25;;
26036;SDS011;13810;48.376;10.944;2023-04-03T00:51:56;4.13;;;2.90;;
26036;SDS011;13810;48.376;10.944;2023-04-03T00:52:29;5.28;;;3.20;;
26036;SDS011;13810;48.376;10.944;2023-04-03T00:53:01;4.85;;;3.28;;
26036;SDS011;13810;48.376;10.944;2023-04-03T00:53:34;5.22;;;3.33;;
26036;SDS011;13810;48.376;10.944;2023-04-03T00:54:08;5.68;;;2.70;;
26036;SDS011;13810;48.376;10.944;2023-04-03T00:54:39;5.30;;;2.80;;
26036;SDS011;13810;48.376;10.944;2023-04-03T00:55:12;4.43;;;2.90;;
26036;SDS011;13810;48.376;10.944;2023-04-03T00:55:44;4.88;;;3.20;;
26036;SDS011;13810;48.376;10.944;2023-04-03T00:56:18;5.40;;;3.08;;
26036;SDS011;13810;48.376;10.944;2023-04-03T00:56:52;3.28;;;2.97;;
26036;SDS011;13810;48.376;10.944;2023-04-03T00:57:25;6.18;;;3.03;;
26036;SDS011;13810;48.376;10.944;2023-04-03T00:57:57;4.57;;;2.88;;
26036;SDS011;13810;48.376;10.944;2023-04-03T00:58:34;3.50;;;3.03;;
26036;SDS011;13810;48.376;10.944;2023-04-03T00:59:18;4.50;;;3.00;;
26036;SDS011;13810;48.376;10.944;2023-04-03T00:59:57;4.35;;;3.30;;
26036;SDS011;13810;48.376;10.944;2023-04-03T01:00:33;4.03;;;2.80;;
26036;SDS011;13810;48.376;10.944;2023-04-03T01:01:07;5.28;;;2.80;;
26036;SDS011;13810;48.376;10.944;2023-04-03T01:01:41;5.70;;;3.13;;
26036;SDS011;13810;48.376;10.944;2023-04-03T01:02:12;3.33;;;2.75;;
26036;SDS011;13810;48.376;10.944;2023-04-03T01:02:43;4.47;;;2.97;;
26036;SDS011;13810;48.376;10.944;2023-04-03T01:03:14;4.07;;;3.10;;
26036;SDS011;13810;48.376;10.944;2023-04-03T01:03:45;4.50;;;3.10;;
26036;SDS011;13810;48.376;10.944;2023-04-03T01:04:34;5.15;;;2.92;;
26036;SDS011;13810;48.376;10.944;2023-04-03T01:05:08;3.53;;;2.72;;
26036;SDS011;13810;48.376;10.944;2023-04-03T01:05:39;3.92;;;2.80;;
26036;SDS011;13810;48.376;10.944;2023-04-03T01:06:10;3.58;;;2.75;;
26036;SDS011;13810;48.376;10.944;2023-04-03T01:06:41;5.45;;;3.05;;
26036;SDS011;13810;48.376;10.944;2023-04-03T01:07:50;5.15;;;3.38;;
26036;SDS011;13810;48.376;10.944;2023-04-03T01:08:22;5.57;;;2.95;;
26036;SDS011;13810;48.376;10.944;2023-04-03T01:08:53;3.92;;;3.20;;
26036;SDS011;13810;48.376;10.944;2023-04-03T01:09:25;3.63;;;2.67;;
26036;SDS011;13810;48.376;10.944;2023-04-03T01:09:57;4.22;;;2.75;;
26036;SDS011;13810;48.376;10.944;2023-04-03T01:10:29;3.97;;;2.88;;
26036;SDS011;13810;48.376;10.944;2023-04-03T01:11:00;3.08;;;2.50;;
26036;SDS011;13810;48.376;10.944;2023-04-03T01:11:31;6.25;;;2.75;;
26036;SDS011;13810;48.376;10.944;2023-04-03T01:12:49;3.35;;;3.00;;
26036;SDS011;13810;48.376;10.944;2023-04-03T01:13:53;5.60;;;2.72;;
26036;SDS011;13810;48.376;10.944;2023-04-03T01:14:24;3.72;;;2.80;;
26036;SDS011;13810;48.376;10.944;2023-04-03T01:14:56;3.47;;;3.03;;
26036;SDS011;13810;48.376;10.944;2023-04-03T01:15:28;4.20;;;2.67;;
26036;SDS011;13810;48.376;10.944;2023-04-03T01:16:05;3.30;;;2.70;;
26036;SDS011;13810;48.376;10.944;2023-04-03T01:16:36;2.75;;;2.28;;
26036;SDS011;13810;48.376;10.944;2023-04-03T01:17:56;4.38;;;3.03;;
26036;SDS011;13810;48.376;10.944;2023-04-03T01:18:28;4.75;;;2.80;;
26036;SDS011;13810;48.376;10.944;2023-04-03T01:19:00;5.05;;;2.47;;
26036;SDS011;13810;48.376;10.944;2023-04-03T01:19:32;4.78;;;3.05;;
26036;SDS011;13810;48.376;10.944;2023-04-03T01:21:54;7.05;;;3.58;;
26036;SDS011;13810;48.376;10.944;2023-04-03T01:24:33;3.95;;;3.00;;
26036;SDS011;13810;48.376;10.944;2023-04-03T01:25:06;3.53;;;2.50;;
26036;SDS011;13810;48.376;10.944;2023-04-03T01:25:38;3.70;;;2.53;;
26036;SDS011;13810;48.376;10.944;2023-04-03T01:26:12;2.97;;;2.33;;
26036;SDS011;13810;48.376;10.944;2023-04-03T01:26:43;5.22;;;2.88;;
26036;SDS011;13810;48.376;10.944;2023-04-03T01:27:14;3.00;;;2.65;;
26036;SDS011;13810;48.376;10.944;2023-04-03T01:27:45;3.53;;;2.80;;
26036;SDS011;13810;48.376;10.944;2023-04-03T01:28:17;2.85;;;2.30;;
26036;SDS011;13810;48.376;10.944;2023-04-03T01:29:00;3.58;;;2.72;;
26036;SDS011;13810;48.376;10.944;2023-04-03T01:29:30;4.30;;;2.70;;
26036;SDS011;13810;48.376;10.944;2023-04-03T01:30:01;3.65;;;2.60;;
26036;SDS011;13810;48.376;10.944;2023-04-03T01:30:34;3.28;;;2.72;;
26036;SDS011;13810;48.376;10.944;2023-04-03T01:31:26;5.90;;;2.58;;
26036;SDS011;13810;48.376;10.944;2023-04-03T01:32:14;3.83;;;2.55;;
26036;SDS011;13810;48.376;10.944;2023-04-03T01:32:45;2.85;;;2.40;;
26036;SDS011;13810;48.376;10.944;2023-04-03T01:33:15;3.58;;;2.50;;
26036;SDS011;13810;48.376;10.944;2023-04-03T01:33:46;5.50;;;2.67;;
26036;SDS011;13810;48.376;10.944;2023-04-03T01:34:17;4.75;;;2.78;;
26036;SDS011;13810;48.376;10.944;2023-04-03T01:34:48;4.40;;;2.78;;
26036;SDS011;13810;48.376;10.944;2023-04-03T01:35:19;3.30;;;2.65;;
26036;SDS011;13810;48.376;10.944;2023-04-03T01:35:49;3.33;;;2.72;;
26036;SDS011;13810;48.376;10.944;2023-04-03T01:36:24;3.60;;;2.63;;
26036;SDS011;13810;48.376;10.944;2023-04-03T01:36:57;5.40;;;2.60;;
26036;SDS011;13810;48.376;10.944;2023-04-03T01:37:28;3.50;;;2.42;;
26036;SDS011;13810;48.376;10.944;2023-04-03T01:37:58;3.17;;;2.42;;
26036;SDS011;13810;48.376;10.944;2023-04-03T01:38:29;3.63;;;2.47;;
26036;SDS011;13810;48.376;10.944;2023-04-03T01:39:00;3.08;;;2.60;;
26036;SDS011;13810;48.376;10.944;2023-04-03T01:39:31;3.50;;;2.58;;
26036;SDS011;13810;48.376;10.944;2023-04-03T01:40:02;2.92;;;2.67;;
26036;SDS011;13810;48.376;10.944;2023-04-03T01:40:33;3.78;;;2.40;;
26036;SDS011;13810;48.376;10.944;2023-04-03T01:41:03;6.32;;;2.78;;
26036;SDS011;13810;48.376;10.944;2023-04-03T01:41:34;3.30;;;2.40;;
26036;SDS011;13810;48.376;10.944;2023-04-03T01:42:05;4.13;;;2.72;;
26036;SDS011;13810;48.376;10.944;2023-04-03T01:42:36;4.45;;;2.85;;
26036;SDS011;13810;48.376;10.944;2023-04-03T01:43:07;3.80;;;2.60;;
26036;SDS011;13810;48.376;10.944;2023-04-03T01:43:38;2.80;;;2.60;;
26036;SDS011;13810;48.376;10.944;2023-04-03T01:44:09;3.63;;;2.47;;
26036;SDS011;13810;48.376;10.944;2023-04-03T01:44:39;4.05;;;2.28;;
26036;SDS011;13810;48.376;10.944;2023-04-03T01:45:11;4.63;;;2.25;;
26036;SDS011;13810;48.376;10.944;2023-04-03T01:45:41;3.65;;;2.50;;
26036;SDS011;13810;48.376;10.944;2023-04-03T01:46:12;3.85;;;2.70;;
26036;SDS011;13810;48.376;10.944;2023-04-03T01:46:43;5.32;;;2.88;;
26036;SDS011;13810;48.376;10.944;2023-04-03T01:47:14;5.22;;;2.33;;
26036;SDS011;13810;48.376;10.944;2023-04-03T01:47:45;4.22;;;2.88;;
26036;SDS011;13810;48.376;10.944;2023-04-03T01:48:16;4.22;;;2.75;;
26036;SDS011;13810;48.376;10.944;2023-04-03T01:48:48;3.00;;;2.42;;
26036;SDS011;13810;48.376;10.944;2023-04-03T01:49:18;4.13;;;2.88;;
26036;SDS011;13810;48.376;10.944;2023-04-03T01:49:49;5.35;;;2.20;;
26036;SDS011;13810;48.376;10.944;2023-04-03T01:50:20;7.53;;;2.65;;
26036;SDS011;13810;48.376;10.944;2023-04-03T01:50:50;4.22;;;2.55;;
26036;SDS011;13810;48.376;10.944;2023-04-03T01:51:21;3.10;;;2.80;;
26036;SDS011;13810;48.376;10.944;2023-04-03T01:51:52;3.92;;;2.85;;
26036;SDS011;13810;48.376;10.944;2023-04-03T01:52:22;3.83;;;2.58;;
26036;SDS011;13810;48.376;10.944;2023-04-03T01:52:53;3.42;;;2.83;;
26036;SDS011;13810;48.376;10.944;2023-04-03T01:53:24;3.80;;;2.15;;
26036;SDS011;13810;48.376;10.944;2023-04-03T01:53:55;3.78;;;2.63;;
26036;SDS011;13810;48.376;10.944;2023-04-03T01:54:25;4.15;;;3.03;;
26036;SDS011;13810;48.376;10.944;2023-04-03T01:54:56;2.92;;;2.40;;
26036;SDS011;13810;48.376;10.944;2023-04-03T01:55:27;3.30;;;2.38;;
26036;SDS011;13810;48.376;10.944;2023-04-03T01:55:57;3.95;;;2.83;;
26036;SDS011;13810;48.376;10.944;2023-04-03T01:56:28;2.53;;;2.33;;
26036;SDS011;13810;48.376;10.944;2023-04-03T01:56:58;3.80;;;2.50;;
26036;SDS011;13810;48.376;10.944;2023-04-03T01:57:29;3.72;;;2.47;;
26036;SDS011;13810;48.376;10.944;2023-04-03T01:58:00;3.53;;;2.65;;
26036;SDS011;13810;48.376;10.944;2023-04-03T01:58:30;3.63;;;2.60;;
26036;SDS011;13810;48.376;10.944;2023-04-03T01:59:01;4.90;;;2.65;;
26036;SDS011;13810;48.376;10.944;2023-04-03T01:59:32;5.88;;;3.33;;
26036;SDS011;13810;48.376;10.944;2023-04-03T02:00:03;3.65;;;2.70;;
26036;SDS011;13810;48.376;10.944;2023-04-03T02:00:34;4.53;;;3.03;;
26036;SDS011;13810;48.376;10.944;2023-04-03T02:01:04;4.55;;;2.70;;
26036;SDS011;13810;48.376;10.944;2023-04-03T02:01:35;3.85;;;2.70;;
26036;SDS011;13810;48.376;10.944;2023-04-03T02:02:06;5.72;;;2.70;;
26036;SDS011;13810;48.376;10.944;2023-04-03T02:02:37;5.38;;;2.55;;
26036;SDS011;13810;48.376;10.944;2023-04-03T02:03:07;3.72;;;2.60;;
26036;SDS011;13810;48.376;10.944;2023-04-03T02:03:38;2.67;;;2.17;;
26036;SDS011;13810;48.376;10.944;2023-04-03T02:04:09;3.22;;;2.50;;
26036;SDS011;13810;48.376;10.944;2023-04-03T02:04:40;5.28;;;2.33;;
26036;SDS011;13810;48.376;10.944;2023-04-03T02:05:11;4.30;;;2.78;;
26036;SDS011;13810;48.376;10.944;2023-04-03T02:05:42;2.88;;;2.03;;
26036;SDS011;13810;48.376;10.944;2023-04-03T02:06:12;5.03;;;2.47;;
26036;SDS011;13810;48.376;10.944;2023-04-03T02:06:43;2.70;;;2.50;;
26036;SDS011;13810;48.376;10.944;2023-04-03T02:07:13;3.22;;;2.60;;
26036;SDS011;13810;48.376;10.944;2023-04-03T02:07:44;5.65;;;3.08;;
26036;SDS011;13810;48.376;10.944;2023-04-03T02:08:15;5.53;;;2.53;;
26036;SDS011;13810;48.376;10.944;2023-04-03T02:08:48;3.47;;;2.35;;
26036;SDS011;13810;48.376;10.944;2023-04-03T02:09:18;3.10;;;2.22;;
26036;SDS011;13810;48.376;10.944;2023-04-03T02:09:49;4.40;;;2.75;;
26036;SDS011;13810;48.376;10.944;2023-04-03T02:10:20;3.30;;;2.35;;
26036;SDS011;13810;48.376;10.944;2023-04-03T02:10:50;4.50;;;2.65;;
26036;SDS011;13810;48.376;10.944;2023-04-03T02:11:21;4.95;;;2.78;;
26036;SDS011;13810;48.376;10.944;2023-04-03T02:11:52;4.78;;;3.03;;
26036;SDS011;13810;48.376;10.944;2023-04-03T02:12:23;5.30;;;2.95;;
26036;SDS011;13810;48.376;10.944;2023-04-03T02:12:54;3.88;;;2.92;;
26036;SDS011;13810;48.376;10.944;2023-04-03T02:13:24;4.05;;;2.67;;
26036;SDS011;13810;48.376;10.944;2023-04-03T02:13:55;3.58;;;2.50;;
26036;SDS011;13810;48.376;10.944;2023-04-03T02:14:26;2.80;;;2.47;;
26036;SDS011;13810;48.376;10.944;2023-04-03T02:14:57;3.10;;;2.50;;
26036;SDS011;13810;48.376;10.944;2023-04-03T02:15:28;9.65;;;3.58;;
26036;SDS011;13810;48.376;10.944;2023-04-03T02:15:58;3.90;;;3.08;;
26036;SDS011;13810;48.376;10.944;2023-04-03T02:16:29;3.08;;;2.45;;
26036;SDS011;13810;48.376;10.944;2023-04-03T02:17:01;4.22;;;2.95;;
26036;SDS011;13810;48.376;10.944;2023-04-03T02:17:35;6.63;;;3.03;;
26036;SDS011;13810;48.376;10.944;2023-04-03T02:18:06;5.30;;;2.88;;
26036;SDS011;13810;48.376;10.944;2023-04-03T02:18:37;2.92;;;2.42;;
26036;SDS011;13810;48.376;10.944;2023-04-03T02:19:08;3.95;;;2.65;;
26036;SDS011;13810;48.376;10.944;2023-04-03T02:19:39;2.47;;;2.28;;
26036;SDS011;13810;48.376;10.944;2023-04-03T02:20:10;3.65;;;2.65;;
26036;SDS011;13810;48.376;10.944;2023-04-03T02:20:41;4.75;;;2.80;;
26036;SDS011;13810;48.376;10.944;2023-04-03T02:21:12;6.40;;;2.95;;
26036;SDS011;13810;48.376;10.944;2023-04-03T02:21:43;4.35;;;2.70;;
26036;SDS011;13810;48.376;10.944;2023-04-03T02:22:13;3.00;;;2.42;;
26036;SDS011;13810;48.376;10.944;2023-04-03T02:22:44;8.52;;;3.10;;
26036;SDS011;13810;48.376;10.944;2023-04-03T02:23:15;4.00;;;2.55;;
26036;SDS011;13810;48.376;10.944;2023-04-03T02:23:45;3.50;;;2.40;;
26036;SDS011;13810;48.376;10.944;2023-04-03T02:24:16;2.80;;;2.60;;
26036;SDS011;13810;48.376;10.944;2023-04-03T02:24:47;6.75;;;3.05;;
26036;SDS011;13810;48.376;10.944;2023-04-03T02:25:17;3.38;;;2.65;;
26036;SDS011;13810;48.376;10.944;2023-04-03T02:25:48;3.88;;;2.38;;
26036;SDS011;13810;48.376;10.944;2023-04-03T02:26:19;5.40;;;2.63;;
26036;SDS011;13810;48.376;10.944;2023-04-03T02:26:49;3.80;;;2.13;;
26036;SDS011;13810;48.376;10.944;2023-04-03T02:27:20;2.88;;;2.65;;
26036;SDS011;13810;48.376;10.944;2023-04-03T02:27:51;3.40;;;3.10;;
26036;SDS011;13810;48.376;10.944;2023-04-03T02:28:22;5.72;;;2.80;;
26036;SDS011;13810;48.376;10.944;2023-04-03T02:28:52;2.97;;;2.47;;
26036;SDS011;13810;48.376;10.944;2023-04-03T02:29:23;3.33;;;2.58;;
26036;SDS011;13810;48.376;10.944;2023-04-03T02:29:53;2.90;;;2.45;;
26036;SDS011;13810;48.376;10.944;2023-04-03T02:30:24;4.55;;;2.72;;
26036;SDS011;13810;48.376;10.944;2023-04-03T02:30:56;2.72;;;2.38;;
26036;SDS011;13810;48.376;10.944;2023-04-03T02:31:26;4.00;;;3.00;;
26036;SDS011;13810;48.376;10.944;2023-04-03T02:31:57;5.03;;;2.50;;
26036;SDS011;13810;48.376;10.944;2023-04-03T02:32:28;3.90;;;3.35;;
26036;SDS011;13810;48.376;10.944;2023-04-03T02:32:58;3.25;;;2.63;;
26036;SDS011;13810;48.376;10.944;2023-04-03T02:33:29;4.57;;;2.88;;
26036;SDS011;13810;48.376;10.944;2023-04-03T02:34:00;5.18;;;2.67;;
26036;SDS011;13810;48.376;10.944;2023-04-03T02:34:31;3.78;;;2.60;;
26036;SDS011;13810;48.376;10.944;2023-04-03T02:35:01;4.03;;;2.70;;
26036;SDS011;13810;48.376;10.944;2023-04-03T02:35:32;4.18;;;2.50;;
26036;SDS011;13810;48.376;10.944;2023-04-03T02:36:06;4.97;;;2.70;;
26036;SDS011;13810;48.376;10.944;2023-04-03T02:36:38;2.75;;;2.50;;
26036;SDS011;13810;48.376;10.944;2023-04-03T02:37:08;4.63;;;2.53;;
26036;SDS011;13810;48.376;10.944;2023-04-03T02:37:39;4.43;;;2.35;;
26036;SDS011;13810;48.376;10.944;2023-04-03T02:38:10;5.13;;;2.90;;
26036;SDS011;13810;48.376;10.944;2023-04-03T02:38:41;2.58;;;2.38;;
26036;SDS011;13810;48.376;10.944;2023-04-03T02:39:12;3.38;;;2.85;;
26036;SDS011;13810;48.376;10.944;2023-04-03T02:39:42;4.22;;;3.13;;
26036;SDS011;13810;48.376;10.944;2023-04-03T02:40:13;3.42;;;3.03;;
26036;SDS011;13810;48.376;10.944;2023-04-03T02:40:43;3.72;;;3.10;;
26036;SDS011;13810;48.376;10.944;2023-04-03T02:41:14;3.08;;;2.78;;
26036;SDS011;13810;48.376;10.944;2023-04-03T02:41:45;5.90;;;3.17;;
26036;SDS011;13810;48.376;10.944;2023-04-03T02:42:15;5.22;;;2.40;;
26036;SDS011;13810;48.376;10.944;2023-04-03T02:42:46;5.43;;;3.05;;
26036;SDS011;13810;48.376;10.944;2023-04-03T02:43:17;2.85;;;2.60;;
26036;SDS011;13810;48.376;10.944;2023-04-03T02:43:48;3.35;;;2.78;;
26036;SDS011;13810;48.376;10.944;2023-04-03T02:44:18;4.38;;;2.80;;
26036;SDS011;13810;48.376;10.944;2023-04-03T02:44:49;4.78;;;3.70;;
26036;SDS011;13810;48.376;10.944;2023-04-03T02:45:19;3.53;;;2.85;;
26036;SDS011;13810;48.376;10.944;2023-04-03T02:45:50;3.70;;;2.70;;
26036;SDS011;13810;48.376;10.944;2023-04-03T02:46:21;3.22;;;2.47;;
26036;SDS011;13810;48.376;10.944;2023-04-03T02:46:52;4.20;;;2.30;;
26036;SDS011;13810;48.376;10.944;2023-04-03T02:47:22;4.03;;;2.95;;
26036;SDS011;13810;48.376;10.944;2023-04-03T02:47:53;3.72;;;3.00;;
26036;SDS011;13810;48.376;10.944;2023-04-03T02:48:24;3.65;;;2.58;;
26036;SDS011;13810;48.376;10.944;2023-04-03T02:48:55;4.25;;;3.08;;
26036;SDS011;13810;48.376;10.944;2023-04-03T02:49:26;3.33;;;2.50;;
26036;SDS011;13810;48.376;10.944;2023-04-03T02:49:56;4.00;;;2.80;;
26036;SDS011;13810;48.376;10.944;2023-04-03T02:50:27;3.33;;;3.03;;
26036;SDS011;13810;48.376;10.944;2023-04-03T02:50:57;3.63;;;2.90;;
26036;SDS011;13810;48.376;10.944;2023-04-03T02:51:28;3.00;;;2.40;;
26036;SDS011;13810;48.376;10.944;2023-04-03T02:51:59;3.90;;;2.70;;
26036;SDS011;13810;48.376;10.944;2023-04-03T02:52:30;9.23;;;3.17;;
26036;SDS011;13810;48.376;10.944;2023-04-03T02:53:00;3.22;;;2.70;;
26036;SDS011;13810;48.376;10.944;2023-04-03T02:53:31;4.38;;;2.45;;
26036;SDS011;13810;48.376;10.944;2023-04-03T02:54:02;4.63;;;3.15;;
26036;SDS011;13810;48.376;10.944;2023-04-03T02:54:32;3.30;;;2.75;;
26036;SDS011;13810;48.376;10.944;2023-04-03T02:55:03;4.45;;;3.00;;
26036;SDS011;13810;48.376;10.944;2023-04-03T02:55:35;3.20;;;2.72;;
26036;SDS011;13810;48.376;10.944;2023-04-03T02:56:06;3.85;;;3.05;;
26036;SDS011;13810;48.376;10.944;2023-04-03T02:56:36;2.58;;;2.30;;
26036;SDS011;13810;48.376;10.944;2023-04-03T02:57:07;4.32;;;2.60;;
26036;SDS011;13810;48.376;10.944;2023-04-03T02:57:40;3.50;;;2.58;;
26036;SDS011;13810;48.376;10.944;2023-04-03T02:58:11;4.10;;;2.72;;
26036;SDS011;13810;48.376;10.944;2023-04-03T02:58:42;6.13;;;2.75;;
26036;SDS011;13810;48.376;10.944;2023-04-03T02:59:13;3.65;;;2.50;;
26036;SDS011;13810;48.376;10.944;2023-04-03T02:59:44;4.10;;;3.10;;
26036;SDS011;13810;48.376;10.944;2023-04-03T03:00:15;5.28;;;2.85;;
26036;SDS011;13810;48.376;10.944;2023-04-03T03:00:45;4.57;;;3.88;;
26036;SDS011;13810;48.376;10.944;2023-04-03T03:01:16;2.90;;;2.60;;
26036;SDS011;13810;48.376;10.944;2023-04-03T03:01:47;4.28;;;2.90;;
26036;SDS011;13810;48.376;10.944;2023-04-03T03:02:17;4.30;;;2.78;;
26036;SDS011;13810;48.376;10.944;2023-04-03T03:02:48;4.75;;;2.95;;
26036;SDS011;13810;48.376;10.944;2023-04-03T03:03:19;4.32;;;2.90;;
26036;SDS011;13810;48.376;10.944;2023-04-03T03:03:50;4.60;;;2.85;;
26036;SDS011;13810;48.376;10.944;2023-04-03T03:04:21;5.30;;;2.88;;
26036;SDS011;13810;48.376;10.944;2023-04-03T03:04:51;3.35;;;2.80;;
26036;SDS011;13810;48.376;10.944;2023-04-03T03:05:22;3.58;;;3.00;;
26036;SDS011;13810;48.376;10.944;2023-04-03T03:06:06;3.35;;;2.92;;
26036;SDS011;13810;48.376;10.944;2023-04-03T03:06:39;3.65;;;2.53;;
26036;SDS011;13810;48.376;10.944;2023-04-03T03:07:10;4.40;;;3.03;;
26036;SDS011;13810;48.376;10.944;2023-04-03T03:07:40;3.15;;;2.67;;
26036;SDS011;13810;48.376;10.944;2023-04-03T03:08:11;5.88;;;3.42;;
26036;SDS011;13810;48.376;10.944;2023-04-03T03:08:41;4.43;;;2.85;;
26036;SDS011;13810;48.376;10.944;2023-04-03T03:09:13;5.20;;;2.95;;
26036;SDS011;13810;48.376;10.944;2023-04-03T03:09:44;4.50;;;2.95;;
26036;SDS011;13810;48.376;10.944;2023-04-03T03:10:14;4.28;;;3.00;;
26036;SDS011;13810;48.376;10.944;2023-04-03T03:10:45;4.57;;;2.83;;
26036;SDS011;13810;48.376;10.944;2023-04-03T03:11:16;5.63;;;3.05;;
26036;SDS011;13810;48.376;10.944;2023-04-03T03:11:46;3.95;;;3.20;;
26036;SDS011;13810;48.376;10.944;2023-04-03T03:12:17;4.30;;;2.90;;
26036;SDS011;13810;48.376;10.944;2023-04-03T03:12:51;6.28;;;2.97;;
26036;SDS011;13810;48.376;10.944;2023-04-03T03:13:22;4.78;;;2.90;;
26036;SDS011;13810;48.376;10.944;2023-04-03T03:13:53;3.65;;;2.78;;